Williamsport, Indiana
Current Conditions -  °F | °C
As of 11:15 AM on Tuesday 21 Oct 2014 (Local Time) from KDNV Reporting Station
Overcast Overcast  
Wind Chill: 52°   Ceiling: 2400
Heat Index: 52°   Visibility: 10mi
Dew Point: 44°   Wind: 13mph
Humidity: 72%   Direction: 10°N
Pressure: 30.1"   Gusts: 18mph
Location:  40.29°N, 87.29°W
Report Text: KDNV 211515Z AUTO 01011G16KT 10SM BKN024 BKN031 OVC048 11/07 A3010 RMK AO2 T01130065
Loading
Personal Weather Stations






























Interactive Weather Map
Tropical Storm Tracking
New forecast layout! Learn more

10-Day Weather Forecast

Advertisements
Track Severe Weather on mobile